sensor_id;sensor_type;location;lat;lon;timestamp;pressure;altitude;pressure_sealevel;temperature;humidity
19843;BME280;10082;51.038;6.992;2023-05-08T00:00:56;-17616.84;;;-144.33;100.00
19843;BME280;10082;51.038;6.992;2023-05-08T00:03:24;-17616.84;;;-144.33;100.00
19843;BME280;10082;51.038;6.992;2023-05-08T00:05:52;-17616.84;;;-144.33;100.00
19843;BME280;10082;51.038;6.992;2023-05-08T00:08:20;-17616.84;;;-144.33;100.00
19843;BME280;10082;51.038;6.992;2023-05-08T00:10:47;-17616.84;;;-144.33;100.00
19843;BME280;10082;51.038;6.992;2023-05-08T00:13:14;-17616.84;;;-144.33;100.00
19843;BME280;10082;51.038;6.992;2023-05-08T00:15:43;-17616.84;;;-144.33;100.00
19843;BME280;10082;51.038;6.992;2023-05-08T00:18:11;-17616.84;;;-144.33;100.00
19843;BME280;10082;51.038;6.992;2023-05-08T00:20:38;-17616.84;;;-144.33;100.00
19843;BME280;10082;51.038;6.992;2023-05-08T00:23:06;-17616.84;;;-144.33;100.00
19843;BME280;10082;51.038;6.992;2023-05-08T00:25:33;-17616.84;;;-144.33;100.00
19843;BME280;10082;51.038;6.992;2023-05-08T00:28:01;-17616.84;;;-144.33;100.00
19843;BME280;10082;51.038;6.992;2023-05-08T00:30:28;-17616.84;;;-144.33;100.00
19843;BME280;10082;51.038;6.992;2023-05-08T00:32:58;-17616.84;;;-144.33;100.00
19843;BME280;10082;51.038;6.992;2023-05-08T00:35:25;-17616.84;;;-144.33;100.00
19843;BME280;10082;51.038;6.992;2023-05-08T00:37:53;-17616.84;;;-144.33;100.00
19843;BME280;10082;51.038;6.992;2023-05-08T00:40:21;-17616.84;;;-144.33;100.00
19843;BME280;10082;51.038;6.992;2023-05-08T00:42:48;-17616.84;;;-144.33;100.00
19843;BME280;10082;51.038;6.992;2023-05-08T00:45:15;-17616.84;;;-144.33;100.00
19843;BME280;10082;51.038;6.992;2023-05-08T00:47:42;-17616.84;;;-144.33;100.00
19843;BME280;10082;51.038;6.992;2023-05-08T00:50:11;-17616.84;;;-144.33;100.00
19843;BME280;10082;51.038;6.992;2023-05-08T00:52:39;-17616.84;;;-144.33;100.00
19843;BME280;10082;51.038;6.992;2023-05-08T00:55:07;-17616.84;;;-144.33;100.00
19843;BME280;10082;51.038;6.992;2023-05-08T00:57:35;-17616.84;;;-144.33;100.00
19843;BME280;10082;51.038;6.992;2023-05-08T01:00:03;-17616.84;;;-144.33;100.00
19843;BME280;10082;51.038;6.992;2023-05-08T01:02:32;-17616.84;;;-144.33;100.00
19843;BME280;10082;51.038;6.992;2023-05-08T01:05:00;-17616.84;;;-144.33;100.00
19843;BME280;10082;51.038;6.992;2023-05-08T01:07:30;-17616.84;;;-144.33;100.00
19843;BME280;10082;51.038;6.992;2023-05-08T01:09:57;-17616.84;;;-144.33;100.00
19843;BME280;10082;51.038;6.992;2023-05-08T01:12:33;-17616.84;;;-144.33;100.00
19843;BME280;10082;51.038;6.992;2023-05-08T01:15:11;-17616.84;;;-144.33;100.00
19843;BME280;10082;51.038;6.992;2023-05-08T01:17:52;-17616.84;;;-144.33;100.00
19843;BME280;10082;51.038;6.992;2023-05-08T01:20:41;-17616.84;;;-144.33;100.00
19843;BME280;10082;51.038;6.992;2023-05-08T01:26:50;-17616.84;;;-144.33;100.00
19843;BME280;10082;51.038;6.992;2023-05-08T01:29:35;-17616.84;;;-144.33;100.00
19843;BME280;10082;51.038;6.992;2023-05-08T01:32:13;-17616.84;;;-144.33;100.00
19843;BME280;10082;51.038;6.992;2023-05-08T01:34:48;-17616.84;;;-144.33;100.00
19843;BME280;10082;51.038;6.992;2023-05-08T01:37:22;-17616.84;;;-144.33;100.00
19843;BME280;10082;51.038;6.992;2023-05-08T01:39:59;-17616.84;;;-144.33;100.00
19843;BME280;10082;51.038;6.992;2023-05-08T01:42:34;-17616.84;;;-144.33;100.00
19843;BME280;10082;51.038;6.992;2023-05-08T01:45:17;-17616.84;;;-144.33;100.00
19843;BME280;10082;51.038;6.992;2023-05-08T01:47:51;-17616.84;;;-144.33;100.00
19843;BME280;10082;51.038;6.992;2023-05-08T01:50:29;-17616.84;;;-144.33;100.00
19843;BME280;10082;51.038;6.992;2023-05-08T01:53:02;-17616.84;;;-144.33;100.00
19843;BME280;10082;51.038;6.992;2023-05-08T01:55:34;-17616.84;;;-144.33;100.00
19843;BME280;10082;51.038;6.992;2023-05-08T01:58:06;-17616.84;;;-144.33;100.00
19843;BME280;10082;51.038;6.992;2023-05-08T02:00:37;-17616.84;;;-144.33;100.00
19843;BME280;10082;51.038;6.992;2023-05-08T02:03:07;-17616.84;;;-144.33;100.00
19843;BME280;10082;51.038;6.992;2023-05-08T02:05:37;-17616.84;;;-144.33;100.00
19843;BME280;10082;51.038;6.992;2023-05-08T02:08:07;-17616.84;;;-144.33;100.00
19843;BME280;10082;51.038;6.992;2023-05-08T02:10:36;-17616.84;;;-144.33;100.00
19843;BME280;10082;51.038;6.992;2023-05-08T02:13:05;-17616.84;;;-144.33;100.00
19843;BME280;10082;51.038;6.992;2023-05-08T02:15:34;-17616.84;;;-144.33;100.00
19843;BME280;10082;51.038;6.992;2023-05-08T02:18:03;-17616.84;;;-144.33;100.00
19843;BME280;10082;51.038;6.992;2023-05-08T02:20:32;-17616.84;;;-144.33;100.00
19843;BME280;10082;51.038;6.992;2023-05-08T02:23:01;-17616.84;;;-144.33;100.00
19843;BME280;10082;51.038;6.992;2023-05-08T02:25:30;-17616.84;;;-144.33;100.00
19843;BME280;10082;51.038;6.992;2023-05-08T02:27:57;-17616.84;;;-144.33;100.00
19843;BME280;10082;51.038;6.992;2023-05-08T02:30:25;-17616.84;;;-144.33;100.00
19843;BME280;10082;51.038;6.992;2023-05-08T02:32:55;-17616.84;;;-144.33;100.00
19843;BME280;10082;51.038;6.992;2023-05-08T02:35:24;-17616.84;;;-144.33;100.00
19843;BME280;10082;51.038;6.992;2023-05-08T02:37:54;-17616.84;;;-144.33;100.00
19843;BME280;10082;51.038;6.992;2023-05-08T02:40:23;-17616.84;;;-144.33;100.00
19843;BME280;10082;51.038;6.992;2023-05-08T02:42:51;-17616.84;;;-144.33;100.00
19843;BME280;10082;51.038;6.992;2023-05-08T02:45:19;-17616.84;;;-144.33;100.00
19843;BME280;10082;51.038;6.992;2023-05-08T02:47:51;-17616.84;;;-144.33;100.00
19843;BME280;10082;51.038;6.992;2023-05-08T02:50:22;-17616.84;;;-144.33;100.00
19843;BME280;10082;51.038;6.992;2023-05-08T02:53:01;-17616.84;;;-144.33;100.00
19843;BME280;10082;51.038;6.992;2023-05-08T02:55:34;-17616.84;;;-144.33;100.00
19843;BME280;10082;51.038;6.992;2023-05-08T02:58:12;-17616.84;;;-144.33;100.00
19843;BME280;10082;51.038;6.992;2023-05-08T03:00:46;-17616.84;;;-144.33;100.00
19843;BME280;10082;51.038;6.992;2023-05-08T03:03:19;-17616.84;;;-144.33;100.00
19843;BME280;10082;51.038;6.992;2023-05-08T03:05:52;-17616.84;;;-144.33;100.00
19843;BME280;10082;51.038;6.992;2023-05-08T03:08:25;-17616.84;;;-144.33;100.00
19843;BME280;10082;51.038;6.992;2023-05-08T03:10:56;-17616.84;;;-144.33;100.00
19843;BME280;10082;51.038;6.992;2023-05-08T03:13:26;-17616.84;;;-144.33;100.00
19843;BME280;10082;51.038;6.992;2023-05-08T03:15:58;-17616.84;;;-144.33;100.00
19843;BME280;10082;51.038;6.992;2023-05-08T03:18:30;-17616.84;;;-144.33;100.00
19843;BME280;10082;51.038;6.992;2023-05-08T03:20:58;-17616.84;;;-144.33;100.00
19843;BME280;10082;51.038;6.992;2023-05-08T03:23:29;-17616.84;;;-144.33;100.00
19843;BME280;10082;51.038;6.992;2023-05-08T03:25:59;-17616.84;;;-144.33;100.00
19843;BME280;10082;51.038;6.992;2023-05-08T03:28:29;-17616.84;;;-144.33;100.00
19843;BME280;10082;51.038;6.992;2023-05-08T03:30:59;-17616.84;;;-144.33;100.00
19843;BME280;10082;51.038;6.992;2023-05-08T03:33:28;-17616.84;;;-144.33;100.00
19843;BME280;10082;51.038;6.992;2023-05-08T03:35:58;-17616.84;;;-144.33;100.00
19843;BME280;10082;51.038;6.992;2023-05-08T03:38:28;-17616.84;;;-144.33;100.00
19843;BME280;10082;51.038;6.992;2023-05-08T03:40:55;-17616.84;;;-144.33;100.00
19843;BME280;10082;51.038;6.992;2023-05-08T03:43:24;-17616.84;;;-144.33;100.00
19843;BME280;10082;51.038;6.992;2023-05-08T03:45:54;-17616.84;;;-144.33;100.00
19843;BME280;10082;51.038;6.992;2023-05-08T03:48:22;-17616.84;;;-144.33;100.00
19843;BME280;10082;51.038;6.992;2023-05-08T03:50:51;-17616.84;;;-144.33;100.00
19843;BME280;10082;51.038;6.992;2023-05-08T03:53:19;-17616.84;;;-144.33;100.00
19843;BME280;10082;51.038;6.992;2023-05-08T03:55:48;-17616.84;;;-144.33;100.00
19843;BME280;10082;51.038;6.992;2023-05-08T03:58:20;-17616.84;;;-144.33;100.00
19843;BME280;10082;51.038;6.992;2023-05-08T04:00:57;-17616.84;;;-144.33;100.00
19843;BME280;10082;51.038;6.992;2023-05-08T04:03:31;-17616.84;;;-144.33;100.00
19843;BME280;10082;51.038;6.992;2023-05-08T04:06:07;-17616.84;;;-144.33;100.00
19843;BME280;10082;51.038;6.992;2023-05-08T04:08:48;-17616.84;;;-144.33;100.00
19843;BME280;10082;51.038;6.992;2023-05-08T04:11:25;-17616.84;;;-144.33;100.00
19843;BME280;10082;51.038;6.992;2023-05-08T04:14:00;-17616.84;;;-144.33;100.00
19843;BME280;10082;51.038;6.992;2023-05-08T04:16:34;-17616.84;;;-144.33;100.00
19843;BME280;10082;51.038;6.992;2023-05-08T04:19:09;-17616.84;;;-144.33;100.00
19843;BME280;10082;51.038;6.992;2023-05-08T04:21:41;-17616.84;;;-144.33;100.00
19843;BME280;10082;51.038;6.992;2023-05-08T04:24:13;-17616.84;;;-144.33;100.00
19843;BME280;10082;51.038;6.992;2023-05-08T04:26:43;-17616.84;;;-144.33;100.00
19843;BME280;10082;51.038;6.992;2023-05-08T04:29:15;-17616.84;;;-144.33;100.00
19843;BME280;10082;51.038;6.992;2023-05-08T04:31:44;-17616.84;;;-144.33;100.00
19843;BME280;10082;51.038;6.992;2023-05-08T04:34:12;-17616.84;;;-144.33;100.00
19843;BME280;10082;51.038;6.992;2023-05-08T04:36:41;-17616.84;;;-144.33;100.00
19843;BME280;10082;51.038;6.992;2023-05-08T04:39:08;-17616.84;;;-144.33;100.00
19843;BME280;10082;51.038;6.992;2023-05-08T04:41:36;-17616.84;;;-144.33;100.00
19843;BME280;10082;51.038;6.992;2023-05-08T04:44:05;-17616.84;;;-144.33;100.00
19843;BME280;10082;51.038;6.992;2023-05-08T04:46:33;-17616.84;;;-144.33;100.00
19843;BME280;10082;51.038;6.992;2023-05-08T04:49:00;-17616.84;;;-144.33;100.00
19843;BME280;10082;51.038;6.992;2023-05-08T04:51:30;-17616.84;;;-144.33;100.00
19843;BME280;10082;51.038;6.992;2023-05-08T04:53:58;-17616.84;;;-144.33;100.00
19843;BME280;10082;51.038;6.992;2023-05-08T04:56:26;-17616.84;;;-144.33;100.00
19843;BME280;10082;51.038;6.992;2023-05-08T04:58:54;-17616.84;;;-144.33;100.00
19843;BME280;10082;51.038;6.992;2023-05-08T05:01:23;-17616.84;;;-144.33;100.00
19843;BME280;10082;51.038;6.992;2023-05-08T05:03:51;-17616.84;;;-144.33;100.00
19843;BME280;10082;51.038;6.992;2023-05-08T05:06:18;-17616.84;;;-144.33;100.00
19843;BME280;10082;51.038;6.992;2023-05-08T05:08:46;-17616.84;;;-144.33;100.00
19843;BME280;10082;51.038;6.992;2023-05-08T05:11:14;-17616.84;;;-144.33;100.00
19843;BME280;10082;51.038;6.992;2023-05-08T05:13:41;-17616.84;;;-144.33;100.00
19843;BME280;10082;51.038;6.992;2023-05-08T05:16:09;-17616.84;;;-144.33;100.00
19843;BME280;10082;51.038;6.992;2023-05-08T05:18:38;-17616.84;;;-144.33;100.00
19843;BME280;10082;51.038;6.992;2023-05-08T05:21:05;-17616.84;;;-144.33;100.00
19843;BME280;10082;51.038;6.992;2023-05-08T05:23:33;-17616.84;;;-144.33;100.00
19843;BME280;10082;51.038;6.992;2023-05-08T05:26:00;-17616.84;;;-144.33;100.00
19843;BME280;10082;51.038;6.992;2023-05-08T05:28:28;-17616.84;;;-144.33;100.00
19843;BME280;10082;51.038;6.992;2023-05-08T05:30:56;-17616.84;;;-144.33;100.00
19843;BME280;10082;51.038;6.992;2023-05-08T05:33:23;-17616.84;;;-144.33;100.00
19843;BME280;10082;51.038;6.992;2023-05-08T05:35:53;-17616.84;;;-144.33;100.00
19843;BME280;10082;51.038;6.992;2023-05-08T05:38:20;-17616.84;;;-144.33;100.00
19843;BME280;10082;51.038;6.992;2023-05-08T05:40:48;-17616.84;;;-144.33;100.00
19843;BME280;10082;51.038;6.992;2023-05-08T05:43:15;-17616.84;;;-144.33;100.00
19843;BME280;10082;51.038;6.992;2023-05-08T05:45:43;-17616.84;;;-144.33;100.00
19843;BME280;10082;51.038;6.992;2023-05-08T05:48:10;-17616.84;;;-144.33;100.00
19843;BME280;10082;51.038;6.992;2023-05-08T05:50:39;-17616.84;;;-144.33;100.00
19843;BME280;10082;51.038;6.992;2023-05-08T05:53:07;-17616.84;;;-144.33;100.00
19843;BME280;10082;51.038;6.992;2023-05-08T05:55:34;-17616.84;;;-144.33;100.00
19843;BME280;10082;51.038;6.992;2023-05-08T05:58:01;-17616.84;;;-144.33;100.00
19843;BME280;10082;51.038;6.992;2023-05-08T06:00:29;-17616.84;;;-144.33;100.00
19843;BME280;10082;51.038;6.992;2023-05-08T06:02:57;-17616.84;;;-144.33;100.00
19843;BME280;10082;51.038;6.992;2023-05-08T06:05:24;-17616.84;;;-144.33;100.00
19843;BME280;10082;51.038;6.992;2023-05-08T06:07:50;-17616.84;;;-144.33;100.00
19843;BME280;10082;51.038;6.992;2023-05-08T06:10:19;-17616.84;;;-144.33;100.00
19843;BME280;10082;51.038;6.992;2023-05-08T06:12:46;-17616.84;;;-144.33;100.00
19843;BME280;10082;51.038;6.992;2023-05-08T06:15:14;-17616.84;;;-144.33;100.00
19843;BME280;10082;51.038;6.992;2023-05-08T06:17:42;-17616.84;;;-144.33;100.00
19843;BME280;10082;51.038;6.992;2023-05-08T06:20:09;-17616.84;;;-144.33;100.00
19843;BME280;10082;51.038;6.992;2023-05-08T06:22:35;-17616.84;;;-144.33;100.00
19843;BME280;10082;51.038;6.992;2023-05-08T06:25:05;-17616.84;;;-144.33;100.00
19843;BME280;10082;51.038;6.992;2023-05-08T06:27:34;-17616.84;;;-144.33;100.00
19843;BME280;10082;51.038;6.992;2023-05-08T06:30:02;-17616.84;;;-144.33;100.00
19843;BME280;10082;51.038;6.992;2023-05-08T06:32:32;-17616.84;;;-144.33;100.00
19843;BME280;10082;51.038;6.992;2023-05-08T06:34:59;-17616.84;;;-144.33;100.00
19843;BME280;10082;51.038;6.992;2023-05-08T06:37:26;-17616.84;;;-144.33;100.00
19843;BME280;10082;51.038;6.992;2023-05-08T06:39:55;-17616.84;;;-144.33;100.00
19843;BME280;10082;51.038;6.992;2023-05-08T06:42:22;-17616.84;;;-144.33;100.00
19843;BME280;10082;51.038;6.992;2023-05-08T06:44:51;-17616.84;;;-144.33;100.00
19843;BME280;10082;51.038;6.992;2023-05-08T06:47:18;-17616.84;;;-144.33;100.00
19843;BME280;10082;51.038;6.992;2023-05-08T06:49:45;-17616.84;;;-144.33;100.00
19843;BME280;10082;51.038;6.992;2023-05-08T06:52:13;-17616.84;;;-144.33;100.00
19843;BME280;10082;51.038;6.992;2023-05-08T06:54:40;-17616.84;;;-144.33;100.00
19843;BME280;10082;51.038;6.992;2023-05-08T06:57:07;-17616.84;;;-144.33;100.00
19843;BME280;10082;51.038;6.992;2023-05-08T06:59:34;-17616.84;;;-144.33;100.00
19843;BME280;10082;51.038;6.992;2023-05-08T07:02:04;-17616.84;;;-144.33;100.00
19843;BME280;10082;51.038;6.992;2023-05-08T07:04:31;-17616.84;;;-144.33;100.00
19843;BME280;10082;51.038;6.992;2023-05-08T07:06:58;-17616.84;;;-144.33;100.00
19843;BME280;10082;51.038;6.992;2023-05-08T07:09:26;-17616.84;;;-144.33;100.00
19843;BME280;10082;51.038;6.992;2023-05-08T07:11:53;-17616.84;;;-144.33;100.00
19843;BME280;10082;51.038;6.992;2023-05-08T07:14:20;-17616.84;;;-144.33;100.00
19843;BME280;10082;51.038;6.992;2023-05-08T07:16:47;-17616.84;;;-144.33;100.00
19843;BME280;10082;51.038;6.992;2023-05-08T07:19:16;-17616.84;;;-144.33;100.00
19843;BME280;10082;51.038;6.992;2023-05-08T07:21:43;-17616.84;;;-144.33;100.00
19843;BME280;10082;51.038;6.992;2023-05-08T07:24:20;-17616.84;;;-144.33;100.00
19843;BME280;10082;51.038;6.992;2023-05-08T07:26:47;-17616.84;;;-144.33;100.00
19843;BME280;10082;51.038;6.992;2023-05-08T07:29:14;-17616.84;;;-144.33;100.00
19843;BME280;10082;51.038;6.992;2023-05-08T07:31:41;-17616.84;;;-144.33;100.00
19843;BME280;10082;51.038;6.992;2023-05-08T07:34:10;-17616.84;;;-144.33;100.00
19843;BME280;10082;51.038;6.992;2023-05-08T07:36:38;-17616.84;;;-144.33;100.00
19843;BME280;10082;51.038;6.992;2023-05-08T07:39:05;-17616.84;;;-144.33;100.00
19843;BME280;10082;51.038;6.992;2023-05-08T07:41:33;-17616.84;;;-144.33;100.00
19843;BME280;10082;51.038;6.992;2023-05-08T07:44:00;-17616.84;;;-144.33;100.00
19843;BME280;10082;51.038;6.992;2023-05-08T07:49:53;-17616.84;;;-144.33;100.00
19843;BME280;10082;51.038;6.992;2023-05-08T07:52:21;-17616.84;;;-144.33;100.00
19843;BME280;10082;51.038;6.992;2023-05-08T07:54:48;-17616.84;;;-144.33;100.00
19843;BME280;10082;51.038;6.992;2023-05-08T07:57:16;-17615.41;;;-144.33;100.00
19843;BME280;10082;51.038;6.992;2023-05-08T07:59:43;-16368.56;;;-144.33;100.00
19843;BME280;10082;51.038;6.992;2023-05-08T08:02:10;-12875.25;;;-144.33;100.00
19843;BME280;10082;51.038;6.992;2023-05-08T08:04:37;-10128.28;;;-144.33;100.00
19843;BME280;10082;51.038;6.992;2023-05-08T08:07:04;-7879.31;;;-144.33;100.00
19843;BME280;10082;51.038;6.992;2023-05-08T08:09:33;-5629.00;;;-144.33;100.00
19843;BME280;10082;51.038;6.992;2023-05-08T08:12:00;-4878.59;;;-144.33;100.00
19843;BME280;10082;51.038;6.992;2023-05-08T08:14:27;-5128.75;;;-144.33;100.00
19843;BME280;10082;51.038;6.992;2023-05-08T08:16:54;-3877.84;;;-144.33;100.00
19843;BME280;10082;51.038;6.992;2023-05-08T08:19:21;-5879.09;;;-144.33;100.00
19843;BME280;10082;51.038;6.992;2023-05-08T08:21:48;-7129.34;;;-144.33;100.00
19843;BME280;10082;51.038;6.992;2023-05-08T08:24:15;-8129.25;;;-144.33;100.00
19843;BME280;10082;51.038;6.992;2023-05-08T08:26:44;-4628.44;;;-144.33;100.00
19843;BME280;10082;51.038;6.992;2023-05-08T08:29:12;-4128.06;;;-144.33;100.00
19843;BME280;10082;51.038;6.992;2023-05-08T08:31:39;-5128.75;;;-144.33;100.00
19843;BME280;10082;51.038;6.992;2023-05-08T08:34:07;-5128.75;;;-144.33;100.00
19843;BME280;10082;51.038;6.992;2023-05-08T08:36:34;-3877.84;;;-144.33;100.00
19843;BME280;10082;51.038;6.992;2023-05-08T08:39:01;-2876.84;;;-144.33;100.00
19843;BME280;10082;51.038;6.992;2023-05-08T08:41:29;-3127.09;;;-144.33;100.00
19843;BME280;10082;51.038;6.992;2023-05-08T08:44:02;-2125.91;;;-144.33;100.00
19843;BME280;10082;51.038;6.992;2023-05-08T08:46:30;1380.41;;;-144.33;100.00
19843;BME280;10082;51.038;6.992;2023-05-08T08:48:58;1881.56;;;-144.33;100.00
19843;BME280;10082;51.038;6.992;2023-05-08T08:51:27;3134.75;;;-144.33;100.00
19843;BME280;10082;51.038;6.992;2023-05-08T08:54:02;1129.84;;;-144.33;100.00
19843;BME280;10082;51.038;6.992;2023-05-08T08:56:31;1881.56;;;-144.33;100.00
19843;BME280;10082;51.038;6.992;2023-05-08T08:59:00;3385.41;;;-144.33;100.00
19843;BME280;10082;51.038;6.992;2023-05-08T09:01:29;4388.31;;;-144.33;100.00
19843;BME280;10082;51.038;6.992;2023-05-08T09:04:01;6896.72;;;-144.33;100.00
19843;BME280;10082;51.038;6.992;2023-05-08T09:06:28;8653.56;;;-144.33;100.00
19843;BME280;10082;51.038;6.992;2023-05-08T09:08:56;13426.19;;;-144.33;100.00
19843;BME280;10082;51.038;6.992;2023-05-08T09:11:24;15437.47;;;-144.33;100.00
19843;BME280;10082;51.038;6.992;2023-05-08T09:13:51;14180.28;;;-144.33;100.00
19843;BME280;10082;51.038;6.992;2023-05-08T09:16:19;15940.44;;;-144.33;100.00
19843;BME280;10082;51.038;6.992;2023-05-08T09:18:46;15437.47;;;-144.33;100.00
19843;BME280;10082;51.038;6.992;2023-05-08T09:21:14;14683.13;;;-144.33;100.00
19843;BME280;10082;51.038;6.992;2023-05-08T09:23:54;14431.69;;;-144.33;100.00
19843;BME280;10082;51.038;6.992;2023-05-08T09:26:30;14180.28;;;-144.33;100.00
19843;BME280;10082;51.038;6.992;2023-05-08T09:29:11;12923.53;;;-144.33;100.00
19843;BME280;10082;51.038;6.992;2023-05-08T09:31:41;12169.66;;;-144.33;100.00
19843;BME280;10082;51.038;6.992;2023-05-08T09:37:37;7147.66;;;-144.33;100.00
19843;BME280;10082;51.038;6.992;2023-05-08T09:40:14;5893.16;;;-144.33;100.00
19843;BME280;10082;51.038;6.992;2023-05-08T09:42:42;3636.13;;;-144.33;100.00
19843;BME280;10082;51.038;6.992;2023-05-08T09:45:10;4639.09;;;-144.33;100.00
19843;BME280;10082;51.038;6.992;2023-05-08T09:47:46;3886.84;;;-144.33;100.00
19843;BME280;10082;51.038;6.992;2023-05-08T09:50:14;1881.56;;;-144.33;100.00
19843;BME280;10082;51.038;6.992;2023-05-08T09:52:46;127.78;;;-144.33;100.00
19843;BME280;10082;51.038;6.992;2023-05-08T09:55:15;-623.59;;;-144.33;100.00
19843;BME280;10082;51.038;6.992;2023-05-08T09:57:51;127.78;;;-144.33;100.00
19843;BME280;10082;51.038;6.992;2023-05-08T10:00:19;-373.16;;;-144.33;100.00
19843;BME280;10082;51.038;6.992;2023-05-08T10:02:55;-1625.19;;;-144.33;100.00
19843;BME280;10082;51.038;6.992;2023-05-08T10:05:24;-2626.53;;;-144.33;100.00
19843;BME280;10082;51.038;6.992;2023-05-08T10:07:51;-1374.81;;;-144.33;100.00
19843;BME280;10082;51.038;6.992;2023-05-08T10:10:22;-2876.84;;;-144.33;100.00
19843;BME280;10082;51.038;6.992;2023-05-08T10:12:52;-3627.63;;;-144.33;100.00
19843;BME280;10082;51.038;6.992;2023-05-08T10:15:21;-2125.91;;;-144.33;100.00
19843;BME280;10082;51.038;6.992;2023-05-08T10:17:57;-874.03;;;-144.33;100.00
19843;BME280;10082;51.038;6.992;2023-05-08T10:20:29;-1374.81;;;-144.33;100.00
19843;BME280;10082;51.038;6.992;2023-05-08T10:22:58;-623.59;;;-144.33;100.00
19843;BME280;10082;51.038;6.992;2023-05-08T10:25:29;-373.16;;;-144.33;100.00
19843;BME280;10082;51.038;6.992;2023-05-08T10:28:06;-623.59;;;-144.33;100.00
19843;BME280;10082;51.038;6.992;2023-05-08T10:30:38;-1374.81;;;-144.33;100.00
19843;BME280;10082;51.038;6.992;2023-05-08T10:33:13;-3127.09;;;-144.33;100.00
19843;BME280;10082;51.038;6.992;2023-05-08T10:35:44;-4378.25;;;-144.33;100.00
19843;BME280;10082;51.038;6.992;2023-05-08T10:38:12;-4878.59;;;-144.33;100.00
19843;BME280;10082;51.038;6.992;2023-05-08T10:40:41;-6629.28;;;-144.33;100.00
19843;BME280;10082;51.038;6.992;2023-05-08T10:43:09;-7629.34;;;-144.33;100.00
19843;BME280;10082;51.038;6.992;2023-05-08T10:45:37;-9128.91;;;-144.33;100.00
19843;BME280;10082;51.038;6.992;2023-05-08T10:48:12;-8879.00;;;-144.33;100.00
19843;BME280;10082;51.038;6.992;2023-05-08T10:50:49;-7379.34;;;-144.33;100.00
19843;BME280;10082;51.038;6.992;2023-05-08T10:53:21;-6379.25;;;-144.33;100.00
19843;BME280;10082;51.038;6.992;2023-05-08T10:55:51;-4628.44;;;-144.33;100.00
19843;BME280;10082;51.038;6.992;2023-05-08T10:58:29;-3377.38;;;-144.33;100.00
19843;BME280;10082;51.038;6.992;2023-05-08T11:01:13;-3127.09;;;-144.33;100.00
19843;BME280;10082;51.038;6.992;2023-05-08T11:03:45;-2626.53;;;-144.33;100.00
19843;BME280;10082;51.038;6.992;2023-05-08T11:06:13;-3627.63;;;-144.33;100.00
19843;BME280;10082;51.038;6.992;2023-05-08T11:08:46;-4378.25;;;-144.33;100.00
19843;BME280;10082;51.038;6.992;2023-05-08T11:11:23;-4628.44;;;-144.33;100.00
19843;BME280;10082;51.038;6.992;2023-05-08T11:13:53;-5128.75;;;-144.33;100.00
19843;BME280;10082;51.038;6.992;2023-05-08T11:17:05;-5378.88;;;-144.33;100.00
19843;BME280;10082;51.038;6.992;2023-05-08T11:19:35;-7629.34;;;-144.33;100.00
19843;BME280;10082;51.038;6.992;2023-05-08T11:22:14;-8879.00;;;-144.33;100.00
19843;BME280;10082;51.038;6.992;2023-05-08T11:24:47;-9128.91;;;-144.33;100.00
19843;BME280;10082;51.038;6.992;2023-05-08T11:27:14;-9878.47;;;-144.33;100.00
19843;BME280;10082;51.038;6.992;2023-05-08T11:29:41;-11377.16;;;-144.33;100.00
19843;BME280;10082;51.038;6.992;2023-05-08T11:32:09;-12875.25;;;-144.33;100.00
19843;BME280;10082;51.038;6.992;2023-05-08T11:34:47;-14123.22;;;-144.33;100.00
19843;BME280;10082;51.038;6.992;2023-05-08T11:37:18;-15121.31;;;-144.33;100.00
19843;BME280;10082;51.038;6.992;2023-05-08T11:39:45;-16867.34;;;-144.33;100.00
19843;BME280;10082;51.038;6.992;2023-05-08T11:42:34;-17615.41;;;-144.33;100.00
19843;BME280;10082;51.038;6.992;2023-05-08T11:45:08;-17616.84;;;-144.33;100.00
19843;BME280;10082;51.038;6.992;2023-05-08T11:47:39;-17616.84;;;-144.33;100.00
19843;BME280;10082;51.038;6.992;2023-05-08T11:50:09;-17616.84;;;-144.33;100.00
19843;BME280;10082;51.038;6.992;2023-05-08T11:52:39;-17616.84;;;-144.33;100.00
19843;BME280;10082;51.038;6.992;2023-05-08T11:55:08;-17616.84;;;-144.33;100.00
19843;BME280;10082;51.038;6.992;2023-05-08T11:57:37;-17616.84;;;-144.33;100.00
19843;BME280;10082;51.038;6.992;2023-05-08T12:00:07;-17616.84;;;-144.33;100.00
19843;BME280;10082;51.038;6.992;2023-05-08T12:02:38;-17616.84;;;-144.33;100.00
19843;BME280;10082;51.038;6.992;2023-05-08T12:05:09;-17616.84;;;-144.33;100.00
19843;BME280;10082;51.038;6.992;2023-05-08T12:07:42;-17615.41;;;-144.33;100.00
19843;BME280;10082;51.038;6.992;2023-05-08T12:10:10;-17616.84;;;-144.33;100.00
19843;BME280;10082;51.038;6.992;2023-05-08T12:12:38;-17615.41;;;-144.33;100.00
19843;BME280;10082;51.038;6.992;2023-05-08T12:15:07;-15620.25;;;-144.33;100.00
19843;BME280;10082;51.038;6.992;2023-05-08T12:17:34;-15869.72;;;-144.33;100.00
19843;BME280;10082;51.038;6.992;2023-05-08T12:20:11;-16368.56;;;-144.33;100.00
19843;BME280;10082;51.038;6.992;2023-05-08T12:22:38;-17615.41;;;-144.33;100.00
19843;BME280;10082;51.038;6.992;2023-05-08T12:25:07;-17616.84;;;-144.33;100.00
19843;BME280;10082;51.038;6.992;2023-05-08T12:27:35;-17616.84;;;-144.33;100.00
19843;BME280;10082;51.038;6.992;2023-05-08T12:30:07;-17616.84;;;-144.33;100.00
19843;BME280;10082;51.038;6.992;2023-05-08T12:32:36;-17616.84;;;-144.33;100.00
19843;BME280;10082;51.038;6.992;2023-05-08T12:35:04;-17616.84;;;-144.33;100.00
19843;BME280;10082;51.038;6.992;2023-05-08T12:37:34;-17616.84;;;-144.33;100.00
19843;BME280;10082;51.038;6.992;2023-05-08T12:40:01;-17616.84;;;-144.33;100.00
19843;BME280;10082;51.038;6.992;2023-05-08T12:42:41;-17616.84;;;-144.33;100.00
19843;BME280;10082;51.038;6.992;2023-05-08T12:45:15;-17616.84;;;-144.33;100.00
19843;BME280;10082;51.038;6.992;2023-05-08T12:47:45;-17616.84;;;-144.33;100.00